sensor_id;sensor_type;location;lat;lon;timestamp;pressure;altitude;pressure_sealevel;temperature;humidity
71485;BME280;59300;52.074;4.758;2022-10-16T00:00:25;100927.31;;;12.25;96.89
71485;BME280;59300;52.074;4.758;2022-10-16T00:03:27;100918.38;;;12.29;96.17
71485;BME280;59300;52.074;4.758;2022-10-16T00:06:31;100915.47;;;12.37;95.21
71485;BME280;59300;52.074;4.758;2022-10-16T00:09:32;100929.53;;;12.39;94.64
71485;BME280;59300;52.074;4.758;2022-10-16T00:12:34;100918.81;;;12.42;94.32
71485;BME280;59300;52.074;4.758;2022-10-16T00:15:36;100918.81;;;12.42;94.26
71485;BME280;59300;52.074;4.758;2022-10-16T00:18:39;100925.72;;;12.46;94.24
71485;BME280;59300;52.074;4.758;2022-10-16T00:21:41;100924.00;;;12.45;93.96
71485;BME280;59300;52.074;4.758;2022-10-16T00:24:42;100925.84;;;12.43;94.41
71485;BME280;59300;52.074;4.758;2022-10-16T00:27:43;100927.69;;;12.41;94.16
71485;BME280;59300;52.074;4.758;2022-10-16T00:30:45;100923.84;;;12.50;93.23
71485;BME280;59300;52.074;4.758;2022-10-16T00:33:46;100917.44;;;12.57;92.68
71485;BME280;59300;52.074;4.758;2022-10-16T00:36:48;100922.66;;;12.58;92.77
71485;BME280;59300;52.074;4.758;2022-10-16T00:39:49;100919.81;;;12.65;92.42
71485;BME280;59300;52.074;4.758;2022-10-16T00:42:51;100904.59;;;12.70;92.04
71485;BME280;59300;52.074;4.758;2022-10-16T00:45:52;100911.28;;;12.80;91.14
71485;BME280;59300;52.074;4.758;2022-10-16T00:48:59;100907.69;;;12.83;91.43
71485;BME280;59300;52.074;4.758;2022-10-16T00:52:02;100908.53;;;12.83;91.81
71485;BME280;59300;52.074;4.758;2022-10-16T00:55:04;100918.28;;;12.83;92.08
71485;BME280;59300;52.074;4.758;2022-10-16T00:58:07;100916.94;;;12.71;93.23
71485;BME280;59300;52.074;4.758;2022-10-16T01:01:08;100917.16;;;12.65;94.09
71485;BME280;59300;52.074;4.758;2022-10-16T01:04:10;100918.06;;;12.64;94.29
71485;BME280;59300;52.074;4.758;2022-10-16T01:13:35;100912.13;;;12.57;95.46
71485;BME280;59300;52.074;4.758;2022-10-16T01:17:10;100893.88;;;12.49;96.68
71485;BME280;59300;52.074;4.758;2022-10-16T01:20:47;100906.28;;;12.47;97.40
71485;BME280;59300;52.074;4.758;2022-10-16T01:27:32;100915.38;;;12.40;99.21
71485;BME280;59300;52.074;4.758;2022-10-16T01:30:36;100919.13;;;12.33;100.00
71485;BME280;59300;52.074;4.758;2022-10-16T01:33:48;100923.84;;;12.24;100.00
71485;BME280;59300;52.074;4.758;2022-10-16T01:36:55;100931.97;;;12.18;100.00
71485;BME280;59300;52.074;4.758;2022-10-16T01:40:00;100937.38;;;12.15;100.00
71485;BME280;59300;52.074;4.758;2022-10-16T01:43:07;100941.84;;;12.13;100.00
71485;BME280;59300;52.074;4.758;2022-10-16T01:46:13;100941.03;;;12.11;100.00
71485;BME280;59300;52.074;4.758;2022-10-16T01:49:16;100940.38;;;12.04;100.00
71485;BME280;59300;52.074;4.758;2022-10-16T01:52:21;100947.00;;;11.89;100.00
71485;BME280;59300;52.074;4.758;2022-10-16T01:55:29;100940.16;;;11.82;100.00
71485;BME280;59300;52.074;4.758;2022-10-16T01:58:36;100939.63;;;11.71;100.00
71485;BME280;59300;52.074;4.758;2022-10-16T02:01:40;100935.69;;;11.56;100.00
71485;BME280;59300;52.074;4.758;2022-10-16T02:04:49;100941.78;;;11.58;100.00
71485;BME280;59300;52.074;4.758;2022-10-16T02:07:52;100946.16;;;11.59;100.00
71485;BME280;59300;52.074;4.758;2022-10-16T02:10:57;100949.72;;;11.58;100.00
71485;BME280;59300;52.074;4.758;2022-10-16T02:14:03;100953.13;;;11.61;100.00
71485;BME280;59300;52.074;4.758;2022-10-16T02:17:14;100953.84;;;11.66;100.00
71485;BME280;59300;52.074;4.758;2022-10-16T02:20:16;100959.25;;;11.63;100.00
71485;BME280;59300;52.074;4.758;2022-10-16T02:23:24;100954.56;;;11.72;100.00
71485;BME280;59300;52.074;4.758;2022-10-16T02:26:42;100952.91;;;11.69;100.00
71485;BME280;59300;52.074;4.758;2022-10-16T02:29:47;100953.03;;;11.64;100.00
71485;BME280;59300;52.074;4.758;2022-10-16T02:32:52;100954.94;;;11.59;100.00
71485;BME280;59300;52.074;4.758;2022-10-16T02:35:56;100960.16;;;11.62;100.00
71485;BME280;59300;52.074;4.758;2022-10-16T02:38:59;100962.81;;;11.61;100.00
71485;BME280;59300;52.074;4.758;2022-10-16T02:42:01;100959.41;;;11.57;100.00
71485;BME280;59300;52.074;4.758;2022-10-16T02:45:03;100962.03;;;11.59;100.00
71485;BME280;59300;52.074;4.758;2022-10-16T02:48:05;100961.22;;;11.55;100.00
71485;BME280;59300;52.074;4.758;2022-10-16T02:51:07;100956.06;;;11.52;100.00
71485;BME280;59300;52.074;4.758;2022-10-16T02:54:08;100963.88;;;11.55;100.00
71485;BME280;59300;52.074;4.758;2022-10-16T02:57:10;100958.72;;;11.52;100.00
71485;BME280;59300;52.074;4.758;2022-10-16T03:00:14;100956.97;;;11.51;100.00
71485;BME280;59300;52.074;4.758;2022-10-16T03:03:15;100952.41;;;11.56;100.00
71485;BME280;59300;52.074;4.758;2022-10-16T03:06:17;100942.06;;;11.48;100.00
71485;BME280;59300;52.074;4.758;2022-10-16T03:09:19;100950.13;;;11.44;100.00
71485;BME280;59300;52.074;4.758;2022-10-16T03:12:21;100952.13;;;11.35;100.00
71485;BME280;59300;52.074;4.758;2022-10-16T03:15:22;100965.97;;;11.44;100.00
71485;BME280;59300;52.074;4.758;2022-10-16T03:18:24;100967.44;;;11.54;100.00
71485;BME280;59300;52.074;4.758;2022-10-16T03:21:25;100976.94;;;11.61;100.00
71485;BME280;59300;52.074;4.758;2022-10-16T03:24:27;100975.19;;;11.60;100.00
71485;BME280;59300;52.074;4.758;2022-10-16T03:27:28;100975.28;;;11.57;100.00
71485;BME280;59300;52.074;4.758;2022-10-16T03:30:30;100978.88;;;11.55;100.00
71485;BME280;59300;52.074;4.758;2022-10-16T03:33:32;100982.22;;;11.61;100.00
71485;BME280;59300;52.074;4.758;2022-10-16T03:36:33;100987.53;;;11.60;100.00
71485;BME280;59300;52.074;4.758;2022-10-16T03:39:35;100987.22;;;11.71;100.00
71485;BME280;59300;52.074;4.758;2022-10-16T03:42:36;100994.84;;;11.80;100.00
71485;BME280;59300;52.074;4.758;2022-10-16T03:45:38;100984.88;;;11.90;100.00
71485;BME280;59300;52.074;4.758;2022-10-16T03:48:39;100993.78;;;11.87;100.00
71485;BME280;59300;52.074;4.758;2022-10-16T03:51:41;100996.50;;;11.84;100.00
71485;BME280;59300;52.074;4.758;2022-10-16T03:54:42;100997.94;;;11.94;100.00
71485;BME280;59300;52.074;4.758;2022-10-16T03:57:43;100995.28;;;11.94;100.00
71485;BME280;59300;52.074;4.758;2022-10-16T04:00:45;101005.88;;;11.94;100.00
71485;BME280;59300;52.074;4.758;2022-10-16T04:03:47;101008.72;;;11.88;100.00
71485;BME280;59300;52.074;4.758;2022-10-16T04:06:48;101009.56;;;11.89;100.00
71485;BME280;59300;52.074;4.758;2022-10-16T04:09:49;101016.06;;;11.78;100.00
71485;BME280;59300;52.074;4.758;2022-10-16T04:12:51;101006.69;;;11.68;100.00
71485;BME280;59300;52.074;4.758;2022-10-16T04:15:52;101018.44;;;11.58;100.00
71485;BME280;59300;52.074;4.758;2022-10-16T04:18:54;101017.84;;;11.48;100.00
71485;BME280;59300;52.074;4.758;2022-10-16T04:21:56;101022.16;;;11.52;100.00
71485;BME280;59300;52.074;4.758;2022-10-16T04:24:57;101023.06;;;11.49;100.00
71485;BME280;59300;52.074;4.758;2022-10-16T04:27:59;101029.41;;;11.44;100.00
71485;BME280;59300;52.074;4.758;2022-10-16T04:31:03;101030.38;;;11.41;100.00
71485;BME280;59300;52.074;4.758;2022-10-16T04:34:05;101035.47;;;11.47;100.00
71485;BME280;59300;52.074;4.758;2022-10-16T04:37:06;101034.19;;;11.61;100.00
71485;BME280;59300;52.074;4.758;2022-10-16T04:40:08;101048.16;;;11.66;100.00
71485;BME280;59300;52.074;4.758;2022-10-16T04:43:09;101042.78;;;11.69;100.00
71485;BME280;59300;52.074;4.758;2022-10-16T04:46:11;101059.56;;;11.68;100.00
71485;BME280;59300;52.074;4.758;2022-10-16T04:49:12;101058.91;;;11.60;100.00
71485;BME280;59300;52.074;4.758;2022-10-16T04:52:14;101064.44;;;11.52;100.00
71485;BME280;59300;52.074;4.758;2022-10-16T04:55:15;101074.06;;;11.53;100.00
71485;BME280;59300;52.074;4.758;2022-10-16T04:58:17;101076.50;;;11.61;100.00
71485;BME280;59300;52.074;4.758;2022-10-16T05:01:18;101082.59;;;11.64;100.00
71485;BME280;59300;52.074;4.758;2022-10-16T05:04:20;101093.97;;;11.66;100.00
71485;BME280;59300;52.074;4.758;2022-10-16T05:07:21;101104.44;;;11.70;100.00
71485;BME280;59300;52.074;4.758;2022-10-16T05:10:23;101104.28;;;11.76;100.00
71485;BME280;59300;52.074;4.758;2022-10-16T05:13:24;101111.13;;;11.83;100.00
71485;BME280;59300;52.074;4.758;2022-10-16T05:16:25;101113.81;;;11.81;100.00
71485;BME280;59300;52.074;4.758;2022-10-16T05:19:27;101109.31;;;11.85;100.00
71485;BME280;59300;52.074;4.758;2022-10-16T05:22:29;101105.75;;;11.86;100.00
71485;BME280;59300;52.074;4.758;2022-10-16T05:25:31;101104.84;;;11.87;100.00
71485;BME280;59300;52.074;4.758;2022-10-16T05:28:32;101116.34;;;11.86;100.00
71485;BME280;59300;52.074;4.758;2022-10-16T05:31:34;101128.72;;;11.84;100.00
71485;BME280;59300;52.074;4.758;2022-10-16T05:34:36;101132.28;;;11.83;100.00
71485;BME280;59300;52.074;4.758;2022-10-16T05:37:37;101138.56;;;11.79;100.00
71485;BME280;59300;52.074;4.758;2022-10-16T05:40:38;101142.22;;;11.75;100.00
71485;BME280;59300;52.074;4.758;2022-10-16T05:43:40;101144.94;;;11.72;100.00
71485;BME280;59300;52.074;4.758;2022-10-16T05:46:41;101138.00;;;11.67;100.00
71485;BME280;59300;52.074;4.758;2022-10-16T05:49:43;101143.28;;;11.67;100.00
71485;BME280;59300;52.074;4.758;2022-10-16T05:52:44;101159.97;;;11.70;100.00
71485;BME280;59300;52.074;4.758;2022-10-16T05:55:51;101160.06;;;11.66;100.00
71485;BME280;59300;52.074;4.758;2022-10-16T05:58:53;101157.59;;;11.60;100.00
71485;BME280;59300;52.074;4.758;2022-10-16T06:01:54;101153.34;;;11.53;100.00
71485;BME280;59300;52.074;4.758;2022-10-16T06:04:56;101148.19;;;11.50;100.00
71485;BME280;59300;52.074;4.758;2022-10-16T06:07:57;101147.34;;;11.48;100.00
71485;BME280;59300;52.074;4.758;2022-10-16T06:11:04;101158.69;;;11.51;100.00
71485;BME280;59300;52.074;4.758;2022-10-16T06:14:05;101161.28;;;11.53;100.00
71485;BME280;59300;52.074;4.758;2022-10-16T06:17:07;101164.88;;;11.52;100.00
71485;BME280;59300;52.074;4.758;2022-10-16T06:20:08;101171.78;;;11.56;100.00
71485;BME280;59300;52.074;4.758;2022-10-16T06:23:10;101169.13;;;11.58;100.00
71485;BME280;59300;52.074;4.758;2022-10-16T06:26:14;101173.38;;;11.63;100.00
71485;BME280;59300;52.074;4.758;2022-10-16T06:29:15;101189.13;;;11.66;100.00
71485;BME280;59300;52.074;4.758;2022-10-16T06:32:17;101185.59;;;11.67;100.00
71485;BME280;59300;52.074;4.758;2022-10-16T06:35:18;101181.88;;;11.75;100.00
71485;BME280;59300;52.074;4.758;2022-10-16T06:38:20;101177.31;;;11.80;100.00
71485;BME280;59300;52.074;4.758;2022-10-16T06:41:22;101178.97;;;11.84;100.00
71485;BME280;59300;52.074;4.758;2022-10-16T06:44:24;101181.63;;;11.84;100.00
71485;BME280;59300;52.074;4.758;2022-10-16T06:47:25;101185.09;;;11.86;100.00
71485;BME280;59300;52.074;4.758;2022-10-16T06:50:27;101196.38;;;11.91;100.00
71485;BME280;59300;52.074;4.758;2022-10-16T06:53:31;101200.78;;;11.92;100.00
71485;BME280;59300;52.074;4.758;2022-10-16T06:56:43;101208.75;;;11.91;100.00
71485;BME280;59300;52.074;4.758;2022-10-16T06:59:45;101211.28;;;11.95;100.00
71485;BME280;59300;52.074;4.758;2022-10-16T07:02:47;101212.97;;;12.00;100.00
71485;BME280;59300;52.074;4.758;2022-10-16T07:05:49;101229.53;;;12.06;100.00
71485;BME280;59300;52.074;4.758;2022-10-16T07:08:51;101237.41;;;12.08;100.00
71485;BME280;59300;52.074;4.758;2022-10-16T07:11:52;101239.94;;;12.12;100.00
71485;BME280;59300;52.074;4.758;2022-10-16T07:14:54;101247.84;;;12.14;100.00
71485;BME280;59300;52.074;4.758;2022-10-16T07:17:55;101259.34;;;12.11;100.00
71485;BME280;59300;52.074;4.758;2022-10-16T07:21:06;101258.56;;;12.08;100.00
71485;BME280;59300;52.074;4.758;2022-10-16T07:24:14;101262.41;;;12.29;100.00
71485;BME280;59300;52.074;4.758;2022-10-16T07:27:16;101271.06;;;12.66;100.00
71485;BME280;59300;52.074;4.758;2022-10-16T07:30:18;101277.09;;;13.28;98.66
71485;BME280;59300;52.074;4.758;2022-10-16T07:33:19;101293.78;;;13.30;98.11
71485;BME280;59300;52.074;4.758;2022-10-16T07:36:21;101297.03;;;13.41;97.48
71485;BME280;59300;52.074;4.758;2022-10-16T07:39:23;101308.94;;;13.81;95.85
71485;BME280;59300;52.074;4.758;2022-10-16T07:42:24;101303.44;;;13.61;96.86
71485;BME280;59300;52.074;4.758;2022-10-16T07:45:25;101316.88;;;13.81;95.98
71485;BME280;59300;52.074;4.758;2022-10-16T07:48:29;101326.41;;;13.89;94.94
71485;BME280;59300;52.074;4.758;2022-10-16T07:51:31;101320.25;;;13.87;94.88
71485;BME280;59300;52.074;4.758;2022-10-16T07:54:32;101326.56;;;14.09;93.69
71485;BME280;59300;52.074;4.758;2022-10-16T07:57:34;101325.91;;;13.49;98.22
71485;BME280;59300;52.074;4.758;2022-10-16T08:00:36;101325.91;;;13.20;100.00
71485;BME280;59300;52.074;4.758;2022-10-16T08:03:38;101346.88;;;12.98;100.00
71485;BME280;59300;52.074;4.758;2022-10-16T08:06:42;101345.94;;;13.01;100.00
71485;BME280;59300;52.074;4.758;2022-10-16T08:09:43;101360.03;;;13.03;100.00
71485;BME280;59300;52.074;4.758;2022-10-16T08:12:45;101353.16;;;12.96;100.00
71485;BME280;59300;52.074;4.758;2022-10-16T08:15:47;101360.97;;;13.00;100.00
71485;BME280;59300;52.074;4.758;2022-10-16T08:18:49;101359.81;;;13.09;100.00
71485;BME280;59300;52.074;4.758;2022-10-16T08:21:50;101371.16;;;13.14;100.00
71485;BME280;59300;52.074;4.758;2022-10-16T08:24:51;101375.44;;;13.18;100.00
71485;BME280;59300;52.074;4.758;2022-10-16T08:27:53;101372.56;;;13.26;100.00
71485;BME280;59300;52.074;4.758;2022-10-16T08:30:54;101374.88;;;13.37;100.00
71485;BME280;59300;52.074;4.758;2022-10-16T08:33:56;101375.94;;;13.31;100.00
71485;BME280;59300;52.074;4.758;2022-10-16T08:36:57;101376.63;;;13.38;100.00
71485;BME280;59300;52.074;4.758;2022-10-16T08:39:59;101380.91;;;13.42;100.00
71485;BME280;59300;52.074;4.758;2022-10-16T08:49:21;101407.78;;;13.60;99.41
71485;BME280;59300;52.074;4.758;2022-10-16T08:52:25;101411.31;;;13.60;100.00
71485;BME280;59300;52.074;4.758;2022-10-16T08:59:10;101419.44;;;13.82;97.47
71485;BME280;59300;52.074;4.758;2022-10-16T09:09:24;101436.59;;;13.99;97.53
71485;BME280;59300;52.074;4.758;2022-10-16T09:12:38;101445.69;;;14.19;97.85
71485;BME280;59300;52.074;4.758;2022-10-16T09:22:21;101455.53;;;14.42;95.63
71485;BME280;59300;52.074;4.758;2022-10-16T09:25:26;101455.84;;;14.58;94.05
71485;BME280;59300;52.074;4.758;2022-10-16T09:28:28;101458.06;;;14.72;93.08
71485;BME280;59300;52.074;4.758;2022-10-16T09:31:29;101451.34;;;14.87;91.26
71485;BME280;59300;52.074;4.758;2022-10-16T09:34:33;101461.38;;;14.79;91.68
71485;BME280;59300;52.074;4.758;2022-10-16T09:37:35;101459.69;;;15.01;91.50
71485;BME280;59300;52.074;4.758;2022-10-16T09:40:38;101454.59;;;15.43;89.80
71485;BME280;59300;52.074;4.758;2022-10-16T09:43:49;101458.38;;;15.59;87.12
71485;BME280;59300;52.074;4.758;2022-10-16T09:47:16;101464.47;;;15.39;88.27
71485;BME280;59300;52.074;4.758;2022-10-16T09:50:26;101459.94;;;15.41;87.79
71485;BME280;59300;52.074;4.758;2022-10-16T09:53:42;101463.88;;;15.55;87.39
71485;BME280;59300;52.074;4.758;2022-10-16T09:56:45;101462.28;;;15.73;87.21
71485;BME280;59300;52.074;4.758;2022-10-16T09:59:48;101459.44;;;15.55;85.34
71485;BME280;59300;52.074;4.758;2022-10-16T10:02:50;101467.22;;;15.60;86.29
71485;BME280;59300;52.074;4.758;2022-10-16T10:05:53;101470.31;;;15.49;84.25
71485;BME280;59300;52.074;4.758;2022-10-16T10:09:23;101470.84;;;15.81;83.49
71485;BME280;59300;52.074;4.758;2022-10-16T10:12:29;101471.81;;;15.78;83.12
71485;BME280;59300;52.074;4.758;2022-10-16T10:15:34;101475.63;;;16.17;82.87
71485;BME280;59300;52.074;4.758;2022-10-16T10:18:37;101472.56;;;16.26;81.50
71485;BME280;59300;52.074;4.758;2022-10-16T10:21:39;101478.59;;;16.52;80.28
71485;BME280;59300;52.074;4.758;2022-10-16T10:24:40;101495.50;;;16.72;77.66
71485;BME280;59300;52.074;4.758;2022-10-16T10:28:08;101486.25;;;16.60;78.61
71485;BME280;59300;52.074;4.758;2022-10-16T10:34:38;101486.03;;;16.85;77.95
71485;BME280;59300;52.074;4.758;2022-10-16T10:38:00;101506.16;;;16.72;76.91
71485;BME280;59300;52.074;4.758;2022-10-16T11:01:12;101531.22;;;16.03;72.47
71485;BME280;59300;52.074;4.758;2022-10-16T11:07:47;101539.28;;;16.23;69.75
71485;BME280;59300;52.074;4.758;2022-10-16T11:10:57;101538.22;;;16.05;68.69
71485;BME280;59300;52.074;4.758;2022-10-16T11:17:24;101552.19;;;15.64;69.35
71485;BME280;59300;52.074;4.758;2022-10-16T11:20:34;101549.06;;;15.77;70.94
71485;BME280;59300;52.074;4.758;2022-10-16T11:23:51;101552.03;;;15.93;70.22
71485;BME280;59300;52.074;4.758;2022-10-16T11:26:56;101552.59;;;16.23;70.52
71485;BME280;59300;52.074;4.758;2022-10-16T11:30:03;101548.09;;;16.46;67.77
71485;BME280;59300;52.074;4.758;2022-10-16T11:36:21;101555.47;;;16.62;66.71
71485;BME280;59300;52.074;4.758;2022-10-16T11:39:26;101551.63;;;16.69;66.58
71485;BME280;59300;52.074;4.758;2022-10-16T11:42:30;101562.13;;;16.72;67.56
71485;BME280;59300;52.074;4.758;2022-10-16T11:45:39;101556.84;;;16.93;66.87
71485;BME280;59300;52.074;4.758;2022-10-16T11:52:53;101559.44;;;16.94;65.18
71485;BME280;59300;52.074;4.758;2022-10-16T11:55:57;101555.19;;;17.11;64.89
71485;BME280;59300;52.074;4.758;2022-10-16T11:59:05;101563.66;;;17.00;64.72
71485;BME280;59300;52.074;4.758;2022-10-16T12:02:30;101564.81;;;16.72;64.18
71485;BME280;59300;52.074;4.758;2022-10-16T12:08:53;101573.09;;;16.86;62.34
71485;BME280;59300;52.074;4.758;2022-10-16T12:11:55;101578.72;;;17.01;62.79
71485;BME280;59300;52.074;4.758;2022-10-16T12:15:22;101585.78;;;17.23;63.24
71485;BME280;59300;52.074;4.758;2022-10-16T12:18:45;101586.31;;;17.10;61.78
71485;BME280;59300;52.074;4.758;2022-10-16T12:21:47;101591.53;;;17.13;63.44
71485;BME280;59300;52.074;4.758;2022-10-16T12:24:51;101584.13;;;17.20;60.86
71485;BME280;59300;52.074;4.758;2022-10-16T12:28:00;101599.91;;;17.25;62.12
71485;BME280;59300;52.074;4.758;2022-10-16T12:31:04;101587.63;;;17.20;62.61
71485;BME280;59300;52.074;4.758;2022-10-16T12:37:38;101587.13;;;16.90;61.40
71485;BME280;59300;52.074;4.758;2022-10-16T12:40:40;101590.47;;;16.74;62.39
71485;BME280;59300;52.074;4.758;2022-10-16T12:43:46;101599.03;;;16.61;63.62
71485;BME280;59300;52.074;4.758;2022-10-16T12:46:47;101598.91;;;16.64;61.65
71485;BME280;59300;52.074;4.758;2022-10-16T12:49:53;101589.34;;;16.80;62.17
71485;BME280;59300;52.074;4.758;2022-10-16T12:52:55;101584.63;;;16.87;62.10
71485;BME280;59300;52.074;4.758;2022-10-16T13:09:37;101596.44;;;17.23;60.54
71485;BME280;59300;52.074;4.758;2022-10-16T13:13:00;101603.25;;;17.30;61.00
71485;BME280;59300;52.074;4.758;2022-10-16T13:29:41;101633.47;;;17.30;63.49
71485;BME280;59300;52.074;4.758;2022-10-16T13:33:16;101622.84;;;17.08;62.92
71485;BME280;59300;52.074;4.758;2022-10-16T13:36:23;101622.69;;;16.91;62.48
71485;BME280;59300;52.074;4.758;2022-10-16T13:42:27;101631.81;;;17.28;62.32
71485;BME280;59300;52.074;4.758;2022-10-16T13:45:29;101645.53;;;17.39;62.17
71485;BME280;59300;52.074;4.758;2022-10-16T13:48:31;101635.31;;;17.49;62.45
71485;BME280;59300;52.074;4.758;2022-10-16T13:51:33;101648.19;;;17.39;62.30
71485;BME280;59300;52.074;4.758;2022-10-16T13:54:35;101636.47;;;17.43;58.85
71485;BME280;59300;52.074;4.758;2022-10-16T13:57:36;101637.59;;;17.38;60.96
71485;BME280;59300;52.074;4.758;2022-10-16T14:00:38;101634.19;;;17.13;62.72
71485;BME280;59300;52.074;4.758;2022-10-16T14:03:40;101631.94;;;17.25;62.09
71485;BME280;59300;52.074;4.758;2022-10-16T14:06:45;101637.78;;;17.12;62.76
71485;BME280;59300;52.074;4.758;2022-10-16T14:09:49;101635.41;;;17.06;64.17
71485;BME280;59300;52.074;4.758;2022-10-16T14:13:02;101633.72;;;17.03;62.53
71485;BME280;59300;52.074;4.758;2022-10-16T14:16:11;101626.66;;;17.02;65.46
71485;BME280;59300;52.074;4.758;2022-10-16T14:19:27;101619.09;;;16.92;66.37
71485;BME280;59300;52.074;4.758;2022-10-16T14:25:35;101628.53;;;16.78;67.82
71485;BME280;59300;52.074;4.758;2022-10-16T14:28:37;101633.75;;;16.81;67.70
71485;BME280;59300;52.074;4.758;2022-10-16T14:31:39;101632.97;;;16.78;70.20
71485;BME280;59300;52.074;4.758;2022-10-16T14:34:40;101626.41;;;16.64;69.52
71485;BME280;59300;52.074;4.758;2022-10-16T14:37:43;101641.56;;;16.64;70.65
71485;BME280;59300;52.074;4.758;2022-10-16T14:40:48;101641.28;;;16.70;73.01
71485;BME280;59300;52.074;4.758;2022-10-16T14:43:53;101633.88;;;16.78;70.47
71485;BME280;59300;52.074;4.758;2022-10-16T14:46:56;101636.22;;;16.64;70.18
71485;BME280;59300;52.074;4.758;2022-10-16T14:49:58;101637.03;;;16.66;72.05
71485;BME280;59300;52.074;4.758;2022-10-16T14:52:59;101629.66;;;16.50;70.90
71485;BME280;59300;52.074;4.758;2022-10-16T14:56:09;101625.56;;;16.41;71.92
71485;BME280;59300;52.074;4.758;2022-10-16T14:59:38;101631.16;;;16.35;71.00
71485;BME280;59300;52.074;4.758;2022-10-16T15:02:40;101634.38;;;16.43;71.74
71485;BME280;59300;52.074;4.758;2022-10-16T15:05:41;101626.06;;;16.29;72.81
71485;BME280;59300;52.074;4.758;2022-10-16T15:08:43;101636.19;;;16.19;72.59
71485;BME280;59300;52.074;4.758;2022-10-16T15:11:44;101631.59;;;16.01;73.22
71485;BME280;59300;52.074;4.758;2022-10-16T15:14:46;101631.06;;;15.91;72.72
71485;BME280;59300;52.074;4.758;2022-10-16T15:17:47;101632.31;;;15.80;74.08
71485;BME280;59300;52.074;4.758;2022-10-16T15:20:49;101651.81;;;15.81;73.87
71485;BME280;59300;52.074;4.758;2022-10-16T15:23:51;101638.91;;;15.70;74.62
71485;BME280;59300;52.074;4.758;2022-10-16T15:26:53;101626.72;;;15.63;75.51
71485;BME280;59300;52.074;4.758;2022-10-16T15:29:54;101630.94;;;15.45;77.02
71485;BME280;59300;52.074;4.758;2022-10-16T15:32:56;101634.69;;;15.39;77.41
71485;BME280;59300;52.074;4.758;2022-10-16T15:35:57;101633.81;;;15.39;76.75
71485;BME280;59300;52.074;4.758;2022-10-16T15:38:59;101620.78;;;15.31;78.44
71485;BME280;59300;52.074;4.758;2022-10-16T15:42:00;101619.31;;;15.22;78.65
71485;BME280;59300;52.074;4.758;2022-10-16T15:45:02;101617.72;;;15.18;77.55
71485;BME280;59300;52.074;4.758;2022-10-16T15:48:04;101625.78;;;15.15;77.94
71485;BME280;59300;52.074;4.758;2022-10-16T15:51:07;101634.88;;;15.08;78.41
71485;BME280;59300;52.074;4.758;2022-10-16T15:54:09;101634.22;;;15.01;78.30
71485;BME280;59300;52.074;4.758;2022-10-16T15:57:10;101636.19;;;14.96;78.41
71485;BME280;59300;52.074;4.758;2022-10-16T16:00:14;101623.06;;;14.91;78.82
71485;BME280;59300;52.074;4.758;2022-10-16T16:03:16;101619.69;;;14.86;79.12
71485;BME280;59300;52.074;4.758;2022-10-16T16:06:17;101628.78;;;14.79;80.45
71485;BME280;59300;52.074;4.758;2022-10-16T16:09:18;101622.84;;;14.70;81.38
71485;BME280;59300;52.074;4.758;2022-10-16T16:12:20;101626.94;;;14.52;82.17
71485;BME280;59300;52.074;4.758;2022-10-16T16:15:21;101622.91;;;14.40;83.40
71485;BME280;59300;52.074;4.758;2022-10-16T16:18:23;101616.25;;;14.25;85.04
71485;BME280;59300;52.074;4.758;2022-10-16T16:21:24;101621.91;;;14.15;85.47
71485;BME280;59300;52.074;4.758;2022-10-16T16:24:26;101630.09;;;14.07;87.17
71485;BME280;59300;52.074;4.758;2022-10-16T16:27:27;101629.41;;;14.00;86.59
71485;BME280;59300;52.074;4.758;2022-10-16T16:30:30;101638.47;;;13.93;87.14
71485;BME280;59300;52.074;4.758;2022-10-16T16:33:32;101644.13;;;13.80;87.91
71485;BME280;59300;52.074;4.758;2022-10-16T16:36:34;101647.19;;;13.66;89.24
71485;BME280;59300;52.074;4.758;2022-10-16T16:39:35;101650.22;;;13.52;90.56
71485;BME280;59300;52.074;4.758;2022-10-16T16:42:37;101659.41;;;13.39;91.55
71485;BME280;59300;52.074;4.758;2022-10-16T16:45:39;101659.53;;;13.33;91.75
71485;BME280;59300;52.074;4.758;2022-10-16T16:48:41;101663.22;;;13.29;92.13
71485;BME280;59300;52.074;4.758;2022-10-16T16:51:42;101657.97;;;13.26;92.92
71485;BME280;59300;52.074;4.758;2022-10-16T16:54:44;101662.50;;;13.22;93.69
71485;BME280;59300;52.074;4.758;2022-10-16T16:57:48;101654.56;;;13.20;93.39
71485;BME280;59300;52.074;4.758;2022-10-16T17:00:49;101642.22;;;13.19;93.71
71485;BME280;59300;52.074;4.758;2022-10-16T17:04:03;101635.19;;;13.18;93.33
71485;BME280;59300;52.074;4.758;2022-10-16T17:07:04;101637.03;;;13.16;92.84
71485;BME280;59300;52.074;4.758;2022-10-16T17:10:06;101637.09;;;13.13;93.30
71485;BME280;59300;52.074;4.758;2022-10-16T17:13:08;101644.28;;;13.08;93.45
71485;BME280;59300;52.074;4.758;2022-10-16T17:16:10;101663.75;;;13.07;93.78
71485;BME280;59300;52.074;4.758;2022-10-16T17:19:14;101672.59;;;13.06;93.22
71485;BME280;59300;52.074;4.758;2022-10-16T17:22:16;101674.44;;;13.04;93.59
71485;BME280;59300;52.074;4.758;2022-10-16T17:25:18;101675.38;;;13.01;93.80
71485;BME280;59300;52.074;4.758;2022-10-16T17:28:19;101683.38;;;12.98;94.87
71485;BME280;59300;52.074;4.758;2022-10-16T17:31:24;101677.28;;;12.96;94.83
71485;BME280;59300;52.074;4.758;2022-10-16T17:34:25;101679.94;;;12.95;94.93
71485;BME280;59300;52.074;4.758;2022-10-16T17:37:27;101677.41;;;12.92;95.26
71485;BME280;59300;52.074;4.758;2022-10-16T17:40:28;101673.84;;;12.91;95.81
71485;BME280;59300;52.074;4.758;2022-10-16T17:43:30;101677.41;;;12.92;96.26
71485;BME280;59300;52.074;4.758;2022-10-16T17:46:31;101679.22;;;12.89;96.12